Time;durP1;ratioP1;P1;durP2;ratioP2;P2;SDS_P1;SDS_P2;PMS_P1;PMS_P2;Temp;Humidity;BMP_temperature;BMP_pressure;BME280_temperature;BME280_humidity;BME280_pressure;Samples;Min_cycle;Max_cycle;Signal;HPM_P1;HPM_P2
2022/04/07 00:01:10;;;;;;;13.98;7.28;;;8.30;99.90;;;;;;5027903;28;20368;-48
2022/04/07 00:03:35;;;;;;;11.88;7.13;;;8.10;99.90;;;;;;5028310;28;20549;-51
2022/04/07 00:06:01;;;;;;;9.27;5.63;;;7.80;99.90;;;;;;5027953;28;20045;-48
2022/04/07 00:08:27;;;;;;;10.73;5.95;;;8.00;99.90;;;;;;5027795;28;20037;-47
2022/04/07 00:10:53;;;;;;;12.63;5.63;;;8.10;99.90;;;;;;5027642;28;20434;-48
2022/04/07 00:13:19;;;;;;;12.45;5.30;;;8.10;99.90;;;;;;5027950;28;20266;-48
2022/04/07 00:15:45;;;;;;;12.73;5.95;;;8.30;99.90;;;;;;5027318;28;20080;-49
2022/04/07 00:18:11;;;;;;;9.85;6.00;;;8.00;99.90;;;;;;5028006;28;20677;-49
2022/04/07 00:20:37;;;;;;;13.80;5.78;;;8.80;99.90;;;;;;5027975;28;20124;-51
2022/04/07 00:23:03;;;;;;;12.52;5.75;;;8.50;99.90;;;;;;5028777;28;20149;-51
2022/04/07 00:25:30;;;;;;;12.18;4.88;;;8.10;99.90;;;;;;5028791;28;20049;-48
2022/04/07 00:27:55;;;;;;;9.02;5.35;;;9.10;99.90;;;;;;5028397;28;20075;-51
2022/04/07 00:30:22;;;;;;;15.40;5.45;;;8.00;99.90;;;;;;5028446;28;20034;-48
2022/04/07 00:32:49;;;;;;;13.02;5.53;;;8.00;99.90;;;;;;5027742;28;20046;-47
2022/04/07 00:35:15;;;;;;;13.98;5.95;;;8.40;99.90;;;;;;5028136;28;20511;-47
2022/04/07 00:37:42;;;;;;;11.00;5.75;;;7.80;99.90;;;;;;5028137;28;20549;-48
2022/04/07 00:40:09;;;;;;;14.13;6.05;;;8.20;99.90;;;;;;5027452;28;20088;-47
2022/04/07 00:42:56;;;;;;;13.23;6.78;;;8.00;99.90;;;;;;5028464;28;20092;-48
2022/04/07 00:45:23;;;;;;;19.33;6.97;;;8.70;99.90;;;;;;5028342;28;20091;-49
2022/04/07 00:47:50;;;;;;;11.43;6.43;;;8.00;99.90;;;;;;5027785;28;20037;-50
2022/04/07 00:50:18;;;;;;;14.23;6.95;;;7.90;99.90;;;;;;5028113;28;20484;-47
2022/04/07 00:52:54;;;;;;;16.13;6.72;;;8.00;99.90;;;;;;5027139;28;20053;-48
2022/04/07 00:55:21;;;;;;;17.33;7.07;;;9.70;99.90;;;;;;5028634;28;20127;-47
2022/04/07 00:57:47;;;;;;;15.25;7.18;;;8.30;99.90;;;;;;5027870;28;20042;-48
2022/04/07 01:00:14;;;;;;;12.82;4.93;;;8.20;99.90;;;;;;5027543;28;20407;-49
2022/04/07 01:02:40;;;;;;;10.68;2.42;;;8.00;99.90;;;;;;5027902;28;20053;-48
2022/04/07 01:05:08;;;;;;;4.38;0.88;;;7.60;99.90;;;;;;5027689;28;20041;-49
2022/04/07 01:07:39;;;;;;;6.15;0.60;;;7.70;99.90;;;;;;5028091;28;20045;-47
2022/04/07 01:10:06;;;;;;;6.13;0.85;;;7.60;99.90;;;;;;5027852;28;20048;-47
2022/04/07 01:12:32;;;;;;;4.45;0.40;;;7.50;99.90;;;;;;5028289;28;20038;-48
2022/04/07 01:15:00;;;;;;;9.82;1.27;;;7.30;99.90;;;;;;5027535;28;20056;-48
2022/04/07 01:17:27;;;;;;;3.20;1.60;;;7.40;99.90;;;;;;5027558;28;20049;-47
2022/04/07 01:19:53;;;;;;;7.25;2.92;;;8.10;99.90;;;;;;5027467;28;20081;-48
2022/04/07 01:22:20;;;;;;;9.13;4.00;;;8.50;99.90;;;;;;5026020;28;20056;-51
2022/04/07 01:24:47;;;;;;;18.67;7.82;;;7.30;99.90;;;;;;5027860;28;20048;-48
2022/04/07 01:27:14;;;;;;;13.18;8.27;;;7.40;99.90;;;;;;5027683;28;20041;-51
2022/04/07 01:29:40;;;;;;;15.15;7.38;;;7.60;99.90;;;;;;5028012;28;20116;-48
2022/04/07 01:32:31;;;;;;;10.50;5.55;;;7.40;99.90;;;;;;5027978;28;20045;-49
2022/04/07 01:34:57;;;;;;;9.57;6.45;;;7.60;99.90;;;;;;5027990;28;20639;-49
2022/04/07 01:37:23;;;;;;;13.50;7.97;;;8.20;99.90;;;;;;5028253;28;20124;-48
2022/04/07 01:39:51;;;;;;;17.95;7.60;;;7.60;99.90;;;;;;5027224;28;20120;-48
2022/04/07 01:42:17;;;;;;;15.80;8.45;;;8.70;99.90;;;;;;5027309;28;20194;-47
2022/04/07 01:44:48;;;;;;;20.50;9.82;;;8.60;99.90;;;;;;5027850;28;20049;-49
2022/04/07 01:47:19;;;;;;;15.65;9.35;;;7.60;99.90;;;;;;5027837;28;20065;-50
2022/04/07 01:49:46;;;;;;;17.98;11.25;;;7.70;99.90;;;;;;5027944;28;20056;-48
2022/04/07 01:52:13;;;;;;;19.60;11.07;;;7.80;99.90;;;;;;5028039;28;20045;-51
2022/04/07 01:54:42;;;;;;;22.98;13.52;;;7.60;99.90;;;;;;5027737;28;20053;-49
2022/04/07 01:57:09;;;;;;;23.00;12.88;;;7.60;99.90;;;;;;5027759;28;20134;-47
2022/04/07 01:59:36;;;;;;;21.73;12.38;;;8.90;99.90;;;;;;5027626;28;20037;-47
2022/04/07 02:02:01;;;;;;;21.73;12.55;;;7.80;99.90;;;;;;5027552;28;20064;-48
2022/04/07 02:04:27;;;;;;;23.25;10.00;;;7.80;99.90;;;;;;5028140;28;20189;-49
2022/04/07 02:06:53;;;;;;;21.70;10.38;;;7.80;99.90;;;;;;5031246;28;20034;-48
2022/04/07 02:09:19;;;;;;;19.60;8.60;;;7.70;99.90;;;;;;5031382;28;20080;-50
2022/04/07 02:11:45;;;;;;;15.05;8.57;;;7.40;99.90;;;;;;5031298;28;20065;-47
2022/04/07 02:14:11;;;;;;;17.52;7.20;;;7.70;99.90;;;;;;5030213;28;20056;-47
2022/04/07 02:16:36;;;;;;;22.70;8.85;;;7.80;99.90;;;;;;5031359;28;20042;-47
2022/04/07 02:19:02;;;;;;;16.95;7.45;;;7.80;99.90;;;;;;5030475;28;20037;-47
2022/04/07 02:21:28;;;;;;;26.52;8.90;;;8.00;99.90;;;;;;5030834;28;20045;-48
2022/04/07 02:23:54;;;;;;;18.23;5.97;;;7.80;99.90;;;;;;5030196;28;20073;-46
2022/04/07 02:26:19;;;;;;;17.17;6.15;;;8.80;99.90;;;;;;5029907;28;20042;-47
2022/04/07 02:28:45;;;;;;;13.27;5.47;;;8.20;99.90;;;;;;5030146;28;20124;-49
2022/04/07 02:31:11;;;;;;;21.15;6.38;;;7.50;99.90;;;;;;5030797;28;20048;-48
2022/04/07 02:33:37;;;;;;;19.38;5.65;;;7.70;99.90;;;;;;5031056;28;20479;-50
2022/04/07 02:36:04;;;;;;;12.35;5.35;;;7.50;99.90;;;;;;5030251;28;20372;-47
2022/04/07 02:38:30;;;;;;;14.23;4.00;;;7.70;99.90;;;;;;5030130;28;20042;-48
2022/04/07 02:40:56;;;;;;;12.23;4.18;;;7.60;99.90;;;;;;5030035;28;20041;-49
2022/04/07 02:43:22;;;;;;;17.90;5.13;;;7.70;99.90;;;;;;5030211;28;20049;-48
2022/04/07 02:45:48;;;;;;;14.98;5.22;;;7.90;99.90;;;;;;5030635;28;20050;-50
2022/04/07 02:48:13;;;;;;;21.48;5.40;;;8.50;99.90;;;;;;5028896;28;20518;-47
2022/04/07 02:50:39;;;;;;;13.07;5.57;;;7.50;99.90;;;;;;5030344;28;20041;-47
2022/04/07 02:53:05;;;;;;;15.25;5.95;;;7.40;99.90;;;;;;5029943;28;20073;-49
2022/04/07 02:55:30;;;;;;;19.95;7.13;;;7.50;99.90;;;;;;5029237;28;20045;-50
2022/04/07 02:58:00;;;;;;;16.73;6.65;;;7.60;99.90;;;;;;5030310;28;20605;-50
2022/04/07 03:00:26;;;;;;;20.30;6.50;;;7.50;99.90;;;;;;5029499;28;20116;-46
2022/04/07 03:02:51;;;;;;;20.95;6.88;;;7.50;99.90;;;;;;5028879;28;20159;-47
2022/04/07 03:05:17;;;;;;;19.88;6.35;;;7.20;99.90;;;;;;5028891;28;20045;-47
2022/04/07 03:07:43;;;;;;;16.60;6.93;;;7.50;99.90;;;;;;5029132;28;20037;-46
2022/04/07 03:10:09;;;;;;;25.60;7.57;;;7.40;99.90;;;;;;5029088;28;20468;-47
2022/04/07 03:12:35;;;;;;;18.45;6.70;;;7.50;99.90;;;;;;5030074;28;20464;-48
2022/04/07 03:15:02;;;;;;;22.73;6.45;;;8.50;99.90;;;;;;5030102;28;20041;-48
2022/04/07 03:17:27;;;;;;;21.00;7.38;;;7.40;99.90;;;;;;5029497;28;20121;-50
2022/04/07 03:19:53;;;;;;;21.08;6.38;;;7.50;99.90;;;;;;5029696;28;20089;-47
2022/04/07 03:22:19;;;;;;;17.20;7.20;;;7.40;99.90;;;;;;5029475;28;20044;-46
2022/04/07 03:24:46;;;;;;;31.20;7.10;;;8.30;99.90;;;;;;5029547;28;20096;-49
2022/04/07 03:27:12;;;;;;;28.45;7.60;;;7.80;99.90;;;;;;5029529;28;20066;-50
2022/04/07 03:29:38;;;;;;;14.23;6.68;;;7.70;99.90;;;;;;5029230;28;20454;-47
2022/04/07 03:32:05;;;;;;;19.40;7.95;;;7.50;99.90;;;;;;5029360;28;20049;-49
2022/04/07 03:34:31;;;;;;;20.38;6.43;;;7.80;99.90;;;;;;5029427;28;20186;-48
2022/04/07 03:36:57;;;;;;;18.27;5.22;;;7.80;99.90;;;;;;5029191;28;20037;-47
2022/04/07 03:39:23;;;;;;;11.50;3.83;;;7.60;99.90;;;;;;5028222;28;20372;-48
2022/04/07 03:41:48;;;;;;;16.60;4.88;;;7.70;99.90;;;;;;5027434;28;20053;-47
2022/04/07 03:44:14;;;;;;;14.35;4.35;;;8.00;99.90;;;;;;5029138;28;20087;-49
2022/04/07 03:46:40;;;;;;;12.82;2.75;;;7.60;99.90;;;;;;5029473;28;20077;-47
2022/04/07 03:49:06;;;;;;;13.70;2.80;;;7.30;99.90;;;;;;5029307;28;20042;-48
2022/04/07 03:51:31;;;;;;;13.90;4.13;;;7.60;99.90;;;;;;5029204;28;20324;-47
2022/04/07 03:53:57;;;;;;;14.68;4.25;;;7.60;99.90;;;;;;5029688;28;20612;-47
2022/04/07 03:56:23;;;;;;;18.48;4.90;;;7.50;99.90;;;;;;5029072;28;20399;-49
2022/04/07 03:58:49;;;;;;;19.67;5.15;;;7.50;99.90;;;;;;5029254;28;20529;-48
2022/04/07 04:01:14;;;;;;;11.52;3.97;;;7.40;99.90;;;;;;5028564;28;20427;-47
2022/04/07 04:03:40;;;;;;;18.80;4.80;;;7.50;99.90;;;;;;5029210;28;20091;-48
2022/04/07 04:06:05;;;;;;;11.52;3.60;;;7.10;99.90;;;;;;5029134;28;20460;-48
2022/04/07 04:08:31;;;;;;;12.27;3.42;;;7.20;99.90;;;;;;5028949;28;20546;-48
2022/04/07 04:10:57;;;;;;;8.93;3.38;;;7.40;99.90;;;;;;5027843;28;20499;-47
2022/04/07 04:13:23;;;;;;;14.52;3.95;;;7.40;99.90;;;;;;5028086;28;20048;-47
2022/04/07 04:15:48;;;;;;;13.95;3.70;;;7.40;99.90;;;;;;5028593;28;20488;-49
2022/04/07 04:18:14;;;;;;;19.20;4.60;;;7.20;99.90;;;;;;5028561;28;20037;-49
2022/04/07 04:20:40;;;;;;;14.63;4.90;;;7.60;99.90;;;;;;5028173;28;20051;-46
2022/04/07 04:23:06;;;;;;;17.15;6.28;;;7.40;99.90;;;;;;5027635;28;20395;-46
2022/04/07 04:25:31;;;;;;;19.95;4.50;;;7.70;99.90;;;;;;5028006;28;20037;-46
2022/04/07 04:27:57;;;;;;;14.70;5.70;;;7.60;99.90;;;;;;5027817;28;20076;-46
2022/04/07 04:30:23;;;;;;;22.27;5.10;;;7.40;99.90;;;;;;5027230;28;20041;-48
2022/04/07 04:32:49;;;;;;;22.15;6.10;;;7.70;99.90;;;;;;5028440;28;20049;-47
2022/04/07 04:35:15;;;;;;;24.45;8.00;;;7.90;99.90;;;;;;5028664;28;20056;-51
2022/04/07 04:37:40;;;;;;;24.15;6.35;;;7.50;99.90;;;;;;5027597;28;20049;-46
2022/04/07 04:40:07;;;;;;;20.27;5.88;;;7.40;99.90;;;;;;5027474;28;20517;-47
2022/04/07 04:42:32;;;;;;;43.00;9.93;;;7.60;99.90;;;;;;5027687;28;20133;-47
2022/04/07 04:44:58;;;;;;;30.02;6.63;;;7.40;99.90;;;;;;5028136;28;20560;-46
2022/04/07 04:47:24;;;;;;;34.22;7.93;;;8.40;99.90;;;;;;5027950;28;20167;-48
2022/04/07 04:49:50;;;;;;;31.50;8.57;;;8.40;99.90;;;;;;5028325;28;20049;-50
2022/04/07 04:52:15;;;;;;;26.35;6.25;;;7.60;99.90;;;;;;5028125;28;20692;-47
2022/04/07 04:54:41;;;;;;;27.17;7.13;;;7.20;99.90;;;;;;5027867;28;20092;-48
2022/04/07 04:57:07;;;;;;;28.45;6.85;;;8.00;99.90;;;;;;5028087;28;20046;-46
2022/04/07 04:59:34;;;;;;;22.60;7.10;;;8.60;99.90;;;;;;5028077;28;20049;-48
2022/04/07 05:01:59;;;;;;;30.98;7.78;;;8.40;99.90;;;;;;5028300;28;20049;-48
2022/04/07 05:04:25;;;;;;;31.42;6.75;;;7.40;99.90;;;;;;5027597;28;20549;-47
2022/04/07 05:06:51;;;;;;;28.90;6.28;;;7.70;99.90;;;;;;5027746;28;20092;-48
2022/04/07 05:09:17;;;;;;;33.65;7.32;;;7.70;99.90;;;;;;5027977;28;20053;-48
2022/04/07 05:11:42;;;;;;;24.45;5.80;;;7.60;99.90;;;;;;5027488;28;20499;-48
2022/04/07 05:14:08;;;;;;;27.02;4.85;;;8.80;99.90;;;;;;5028137;28;20049;-47
2022/04/07 05:16:34;;;;;;;19.85;5.50;;;7.50;99.90;;;;;;5026910;28;20054;-46
2022/04/07 05:19:00;;;;;;;14.65;2.20;;;8.50;99.90;;;;;;5027108;28;20766;-47
2022/04/07 05:21:26;;;;;;;21.85;3.13;;;8.00;99.90;;;;;;5027642;28;20119;-49
2022/04/07 05:23:52;;;;;;;26.40;3.95;;;7.30;99.90;;;;;;5027853;28;20049;-48
2022/04/07 05:26:18;;;;;;;23.48;5.03;;;7.50;99.90;;;;;;5010011;28;20049;-48
2022/04/07 05:28:44;;;;;;;27.35;6.55;;;8.30;99.90;;;;;;5027488;28;20045;-47
2022/04/07 05:31:10;;;;;;;40.78;7.50;;;8.40;99.90;;;;;;5028090;28;20041;-49
2022/04/07 05:33:36;;;;;;;31.95;7.28;;;7.40;99.90;;;;;;5027199;28;20064;-47
2022/04/07 05:36:02;;;;;;;23.67;8.02;;;7.50;99.90;;;;;;5027759;28;20041;-47
2022/04/07 05:38:28;;;;;;;26.23;8.10;;;7.50;99.90;;;;;;5026405;28;20041;-47
2022/04/07 05:40:54;;;;;;;31.02;8.20;;;7.50;99.90;;;;;;5029404;28;20042;-47
2022/04/07 05:43:20;;;;;;;29.08;8.13;;;7.40;99.90;;;;;;5030429;28;20525;-46
2022/04/07 05:45:46;;;;;;;37.35;10.35;;;7.50;99.90;;;;;;5030519;28;20034;-47
2022/04/07 05:48:12;;;;;;;38.83;9.20;;;7.60;99.90;;;;;;5030776;28;20061;-48
2022/04/07 05:50:39;;;;;;;20.05;7.88;;;7.90;99.90;;;;;;5031587;28;20048;-49
2022/04/07 05:53:06;;;;;;;21.30;7.60;;;7.50;99.90;;;;;;5032121;28;20041;-49
2022/04/07 05:55:33;;;;;;;27.58;7.97;;;7.60;99.90;;;;;;5031653;28;20038;-48
2022/04/07 05:58:05;;;;;;;23.92;6.68;;;8.00;99.90;;;;;;5031563;28;20052;-48
2022/04/07 06:00:31;;;;;;;10.85;4.43;;;7.70;99.90;;;;;;5031191;28;20128;-48
2022/04/07 06:02:56;;;;;;;1.40;0.20;;;7.50;99.90;;;;;;5031330;28;20171;-48
2022/04/07 06:05:22;;;;;;;5.07;0.35;;;6.80;99.90;;;;;;5031550;28;20132;-47
2022/04/07 06:07:48;;;;;;;2.55;0.20;;;5.40;99.90;;;;;;5030945;28;20038;-47
2022/04/07 06:10:14;;;;;;;0.68;0.10;;;4.80;99.90;;;;;;5031192;28;20552;-50
2022/04/07 06:12:42;;;;;;;1.17;0.00;;;4.30;99.90;;;;;;5031164;28;20168;-46
2022/04/07 06:15:11;;;;;;;1.75;0.10;;;3.90;99.90;;;;;;5030953;28;20045;-48
2022/04/07 06:17:42;;;;;;;2.92;0.10;;;3.80;99.90;;;;;;5030516;28;20503;-48
2022/04/07 06:20:12;;;;;;;4.15;0.32;;;3.80;99.90;;;;;;5030949;28;20372;-47
2022/04/07 06:22:42;;;;;;;1.58;0.20;;;3.70;99.90;;;;;;5030517;28;20037;-47
2022/04/07 06:25:08;;;;;;;3.45;0.20;;;3.60;99.90;;;;;;5030780;28;20472;-48
2022/04/07 06:27:39;;;;;;;6.53;0.30;;;3.70;99.90;;;;;;5030548;28;20063;-50
2022/04/07 06:30:06;;;;;;;2.95;0.28;;;3.90;99.90;;;;;;5030777;28;20098;-50
2022/04/07 06:32:32;;;;;;;6.03;0.50;;;3.80;99.90;;;;;;5030766;28;20041;-46
2022/04/07 06:34:58;;;;;;;6.50;1.80;;;4.10;99.90;;;;;;5029993;28;20481;-50
2022/04/07 06:37:24;;;;;;;5.32;0.52;;;3.90;99.90;;;;;;5030617;28;20049;-47
2022/04/07 06:39:50;;;;;;;7.40;0.70;;;3.90;99.90;;;;;;5029379;28;20068;-48
2022/04/07 06:42:15;;;;;;;4.97;0.45;;;4.10;99.90;;;;;;5030198;28;20100;-47
2022/04/07 06:44:41;;;;;;;8.68;0.40;;;4.10;99.90;;;;;;5029744;28;20529;-50
2022/04/07 06:47:07;;;;;;;2.50;0.10;;;4.30;99.90;;;;;;5029015;28;20819;-49
2022/04/07 06:49:33;;;;;;;4.22;0.50;;;4.10;99.90;;;;;;5024529;28;20040;-52
2022/04/07 06:51:58;;;;;;;2.45;0.13;;;4.50;99.90;;;;;;5025888;28;20055;-40
2022/04/07 06:54:24;;;;;;;6.57;1.10;;;5.40;99.90;;;;;;5030520;28;20040;-39
2022/04/07 06:56:50;;;;;;;4.38;0.30;;;4.30;99.90;;;;;;5031032;28;20133;-43
2022/04/07 06:59:21;;;;;;;3.25;0.40;;;4.40;99.90;;;;;;5032716;28;20076;-45
2022/04/07 07:01:47;;;;;;;3.63;0.30;;;4.40;99.90;;;;;;5031039;28;20041;-45
2022/04/07 07:04:12;;;;;;;3.55;0.40;;;5.40;99.90;;;;;;5029028;28;20337;-42
2022/04/07 07:06:38;;;;;;;4.38;0.20;;;4.50;99.90;;;;;;5029755;28;20037;-41
2022/04/07 07:09:04;;;;;;;2.20;0.22;;;4.50;99.90;;;;;;5030079;28;20456;-44
2022/04/07 07:11:29;;;;;;;4.78;0.43;;;4.70;99.90;;;;;;5030780;28;20437;-44
2022/04/07 07:13:55;;;;;;;3.08;0.30;;;4.50;99.90;;;;;;5030231;28;20515;-44
2022/04/07 07:16:21;;;;;;;2.72;0.63;;;4.60;99.90;;;;;;5029786;28;20052;-45
2022/04/07 07:18:47;;;;;;;2.15;0.17;;;4.70;99.90;;;;;;5029332;28;20053;-45
2022/04/07 07:21:14;;;;;;;2.97;0.20;;;4.80;99.90;;;;;;5029518;28;20049;-46
2022/04/07 07:23:39;;;;;;;1.88;0.20;;;5.50;99.90;;;;;;5029192;28;20041;-43
2022/04/07 07:26:05;;;;;;;2.83;0.20;;;5.00;99.90;;;;;;5029488;28;20044;-46
2022/04/07 07:28:31;;;;;;;3.90;0.20;;;6.30;99.90;;;;;;5029631;28;20183;-43
2022/04/07 07:30:56;;;;;;;2.35;0.20;;;4.70;99.90;;;;;;5029638;28;20127;-44
2022/04/07 07:33:22;;;;;;;3.58;0.25;;;4.70;99.90;;;;;;5028691;28;20087;-45
2022/04/07 07:35:48;;;;;;;2.50;0.30;;;4.70;99.90;;;;;;5028823;28;20061;-43
2022/04/07 07:38:13;;;;;;;3.00;0.20;;;4.80;99.90;;;;;;5028480;28;20075;-43
2022/04/07 07:40:39;;;;;;;1.63;0.30;;;5.80;99.90;;;;;;5028947;28;20049;-45
2022/04/07 07:43:05;;;;;;;3.50;0.30;;;4.70;99.90;;;;;;5028556;28;20075;-44
2022/04/07 07:45:35;;;;;;;3.40;0.28;;;5.40;99.90;;;;;;5028432;28;20492;-48
2022/04/07 07:48:00;;;;;;;5.32;0.30;;;5.70;99.90;;;;;;5028305;28;20550;-46
2022/04/07 07:50:26;;;;;;;4.38;0.10;;;4.90;99.90;;;;;;5028875;28;20047;-49
2022/04/07 07:52:52;;;;;;;4.18;0.20;;;4.80;99.90;;;;;;5028987;28;20041;-45
2022/04/07 07:55:18;;;;;;;3.40;0.28;;;4.90;99.90;;;;;;5029084;28;20045;-44
2022/04/07 07:57:44;;;;;;;4.28;0.30;;;4.90;99.90;;;;;;5028723;28;20154;-46
2022/04/07 08:00:12;;;;;;;1.58;0.20;;;4.90;99.90;;;;;;5028992;28;20471;-47
2022/04/07 08:02:38;;;;;;;5.32;0.25;;;4.80;99.90;;;;;;5027832;28;20121;-45
2022/04/07 08:05:06;;;;;;;5.20;0.40;;;4.90;99.90;;;;;;5028867;28;20176;-44
2022/04/07 08:07:32;;;;;;;4.38;1.55;;;4.70;99.90;;;;;;5029189;28;20077;-44
2022/04/07 08:09:58;;;;;;;3.30;0.35;;;5.00;99.90;;;;;;5028714;28;20098;-44
2022/04/07 08:12:29;;;;;;;6.18;0.50;;;5.70;99.90;;;;;;5029685;28;20480;-50
2022/04/07 08:14:55;;;;;;;2.65;0.40;;;4.80;99.90;;;;;;5028602;28;20091;-47
2022/04/07 08:17:21;;;;;;;9.93;0.82;;;4.90;99.90;;;;;;5029750;28;20045;-46
2022/04/07 08:19:47;;;;;;;2.47;0.40;;;5.10;99.90;;;;;;5028922;28;20451;-44
2022/04/07 08:22:13;;;;;;;2.10;0.32;;;6.00;99.90;;;;;;5029731;28;20044;-40
2022/04/07 08:24:39;;;;;;;4.93;0.50;;;5.00;99.90;;;;;;5030114;28;20783;-41
2022/04/07 08:27:05;;;;;;;1.20;0.30;;;5.10;99.90;;;;;;5030709;28;20079;-40
2022/04/07 08:29:31;;;;;;;4.38;0.25;;;5.30;99.90;;;;;;5029786;28;20052;-42
2022/04/07 08:31:57;;;;;;;4.32;0.45;;;5.10;99.90;;;;;;5029008;28;20045;-44
2022/04/07 08:34:25;;;;;;;7.88;0.65;;;6.30;99.90;;;;;;5029416;28;20045;-40
2022/04/07 08:36:51;;;;;;;5.65;0.20;;;5.20;99.90;;;;;;5028764;28;20045;-41
2022/04/07 08:39:17;;;;;;;3.03;0.20;;;5.30;99.90;;;;;;5027098;28;20159;-41
2022/04/07 08:41:45;;;;;;;2.00;0.50;;;5.50;99.90;;;;;;5027887;28;20153;-41
2022/04/07 08:44:12;;;;;;;5.40;0.50;;;5.60;99.90;;;;;;5028067;28;20053;-41
2022/04/07 08:46:39;;;;;;;2.42;0.30;;;5.70;99.90;;;;;;5027856;28;20578;-53
2022/04/07 08:49:06;;;;;;;6.75;0.50;;;6.30;99.90;;;;;;5028257;28;20112;-49
2022/04/07 08:51:32;;;;;;;6.18;0.60;;;6.10;99.90;;;;;;5028308;28;20053;-52
2022/04/07 08:53:59;;;;;;;9.32;0.68;;;6.10;99.90;;;;;;5027632;28;20519;-50
2022/04/07 08:56:25;;;;;;;4.82;0.30;;;6.00;99.90;;;;;;5028241;28;20045;-52
2022/04/07 08:58:53;;;;;;;7.53;0.30;;;6.40;99.90;;;;;;5027897;28;20492;-51
2022/04/07 09:01:19;;;;;;;6.38;1.55;;;8.20;99.90;;;;;;5027982;28;20468;-52
2022/04/07 09:03:45;;;;;;;4.50;0.43;;;10.10;99.90;;;;;;5027817;28;20484;-52
2022/04/07 09:06:15;;;;;;;4.47;0.55;;;10.40;99.90;;;;;;5027880;28;20128;-51
2022/04/07 09:08:41;;;;;;;6.18;1.00;;;11.30;99.90;;;;;;5027669;28;20717;-52
2022/04/07 09:11:09;;;;;;;4.63;0.20;;;11.70;99.90;;;;;;5027763;28;20052;-53
2022/04/07 09:13:39;;;;;;;3.25;0.30;;;12.60;99.90;;;;;;5028452;28;20044;-51
2022/04/07 09:16:13;;;;;;;3.75;0.30;;;12.50;99.90;;;;;;5031861;28;20077;-52
2022/04/07 09:18:44;;;;;;;4.28;0.30;;;12.60;99.90;;;;;;5031859;28;20045;-52
2022/04/07 09:21:28;;;;;;;1.80;0.28;;;12.50;99.90;;;;;;5031633;28;20124;-53
2022/04/07 09:23:55;;;;;;;1.85;0.50;;;12.90;99.90;;;;;;5031736;28;20038;-50
2022/04/07 09:26:21;;;;;;;4.10;0.30;;;13.00;99.90;;;;;;5031755;28;20055;-52
2022/04/07 09:28:46;;;;;;;5.65;0.30;;;13.40;99.90;;;;;;5031565;28;20398;-51
2022/04/07 09:31:15;;;;;;;4.40;0.30;;;13.40;99.90;;;;;;5031631;28;20069;-50
2022/04/07 09:33:41;;;;;;;5.45;0.35;;;13.30;99.90;;;;;;5031640;28;20112;-51
2022/04/07 09:36:12;;;;;;;4.07;0.55;;;13.30;99.90;;;;;;5031446;28;20080;-53
2022/04/07 09:38:39;;;;;;;5.45;0.52;;;13.40;99.90;;;;;;5031345;28;20185;-50
2022/04/07 09:41:12;;;;;;;5.82;0.70;;;13.40;99.90;;;;;;5031053;28;20069;-52
2022/04/07 09:43:53;;;;;;;4.93;0.82;;;13.70;99.90;;;;;;5031813;28;20111;-53
2022/04/07 09:46:20;;;;;;;8.48;0.70;;;14.10;99.90;;;;;;5031449;28;20041;-53
2022/04/07 09:49:04;;;;;;;4.82;0.40;;;13.90;99.90;;;;;;5031826;28;20033;-53
2022/04/07 09:51:46;;;;;;;4.28;0.30;;;12.90;99.90;;;;;;5031726;28;20041;-52
2022/04/07 09:54:16;;;;;;;5.38;0.50;;;11.90;99.90;;;;;;5031321;28;20061;-52
2022/04/07 09:56:52;;;;;;;5.80;0.68;;;11.20;99.90;;;;;;5031726;28;20037;-49
2022/04/07 09:59:20;;;;;;;10.40;0.57;;;10.60;99.90;;;;;;5031316;28;20443;-49
2022/04/07 10:01:49;;;;;;;10.52;0.68;;;10.40;99.90;;;;;;5031207;28;20038;-49
2022/04/07 10:04:16;;;;;;;8.13;0.60;;;9.90;99.90;;;;;;5031195;28;20084;-53
2022/04/07 10:06:43;;;;;;;8.23;1.08;;;9.70;99.90;;;;;;5031431;28;20454;-49
2022/04/07 10:09:09;;;;;;;10.95;0.60;;;9.90;99.90;;;;;;5031331;28;20034;-50
2022/04/07 10:11:36;;;;;;;8.02;0.43;;;9.80;99.90;;;;;;5031452;28;20045;-51
2022/04/07 10:14:02;;;;;;;4.22;0.30;;;10.50;99.90;;;;;;5031400;28;20100;-52
2022/04/07 10:16:29;;;;;;;6.45;1.00;;;10.80;99.90;;;;;;5031826;28;20045;-52
2022/04/07 10:19:01;;;;;;;9.38;2.40;;;10.30;99.90;;;;;;5031663;28;20712;-52
2022/04/07 10:21:43;;;;;;;11.57;1.35;;;9.90;99.90;;;;;;5031012;28;20041;-53
2022/04/07 10:24:48;;;;;;;7.35;0.55;;;9.50;99.90;;;;;;5030791;28;20045;-51
2022/04/07 10:27:20;;;;;;;9.98;0.75;;;8.50;99.90;;;;;;5026592;28;20037;-51
2022/04/07 10:30:04;;;;;;;8.95;0.82;;;8.10;99.90;;;;;;5030574;28;20045;-49
2022/04/07 10:32:41;;;;;;;10.50;0.90;;;8.10;99.90;;;;;;5030760;28;20060;-49
2022/04/07 10:35:08;;;;;;;9.60;1.00;;;8.00;99.90;;;;;;5030438;28;20388;-52
2022/04/07 10:37:54;;;;;;;10.15;0.95;;;9.30;99.90;;;;;;5030888;28;20037;-51
2022/04/07 10:40:51;;;;;;;10.02;1.30;;;8.50;99.90;;;;;;5029523;28;20083;-52
2022/04/07 10:43:23;;;;;;;11.25;1.10;;;8.00;99.90;;;;;;5030104;28;20085;-49
2022/04/07 10:46:06;;;;;;;11.27;0.93;;;8.00;99.90;;;;;;5030486;28;20079;-48
2022/04/07 10:48:36;;;;;;;11.10;1.48;;;8.10;99.90;;;;;;5030664;28;20061;-49
2022/04/07 10:51:11;;;;;;;10.52;1.67;;;8.30;99.90;;;;;;5030254;28;20436;-49
2022/04/07 10:53:37;;;;;;;9.35;0.90;;;8.20;99.90;;;;;;5030090;28;20045;-49
2022/04/07 10:56:34;;;;;;;10.90;0.77;;;8.40;99.90;;;;;;5030282;28;20079;-49
2022/04/07 10:59:19;;;;;;;9.68;1.35;;;8.40;99.90;;;;;;5029949;28;20492;-52
2022/04/07 11:02:03;;;;;;;9.77;1.13;;;8.30;99.90;;;;;;5030176;28;20045;-51
2022/04/07 11:04:35;;;;;;;14.68;3.30;;;8.50;99.90;;;;;;5029607;28;20538;-51
2022/04/07 11:09:46;;;;;;;12.70;2.40;;;8.50;99.90;;;;;;5029656;28;20394;-51
2022/04/07 11:12:34;;;;;;;11.65;1.00;;;8.40;99.90;;;;;;5029745;28;20045;-50
2022/04/07 11:15:02;;;;;;;10.32;0.90;;;8.40;99.90;;;;;;5029502;28;20099;-50
2022/04/07 11:17:44;;;;;;;7.88;0.93;;;8.20;99.90;;;;;;5029785;28;20041;-49
2022/04/07 11:20:17;;;;;;;11.20;0.85;;;9.40;99.90;;;;;;5029436;28;20483;-51
2022/04/07 11:23:09;;;;;;;8.73;0.98;;;8.50;99.90;;;;;;5029369;28;20054;-49
2022/04/07 11:25:46;;;;;;;3.20;0.93;;;8.70;99.90;;;;;;5029488;28;20048;-50
2022/04/07 11:28:22;;;;;;;3.95;0.57;;;8.30;99.90;;;;;;5029662;28;20040;-51
2022/04/07 11:31:00;;;;;;;3.55;0.50;;;8.00;99.90;;;;;;5029375;28;20049;-50
2022/04/07 11:33:35;;;;;;;8.80;0.85;;;7.70;99.90;;;;;;5029108;28;20120;-52
2022/04/07 11:36:00;;;;;;;7.03;0.40;;;8.40;99.90;;;;;;5029177;28;20554;-49
2022/04/07 11:38:33;;;;;;;5.55;0.85;;;8.00;99.90;;;;;;5028626;28;20045;-50
2022/04/07 11:41:02;;;;;;;10.63;1.98;;;8.70;99.90;;;;;;5028837;28;20048;-52
2022/04/07 11:43:28;;;;;;;13.45;0.85;;;7.80;99.90;;;;;;5028777;28;20096;-49
2022/04/07 11:45:55;;;;;;;9.00;1.30;;;8.00;99.90;;;;;;5029363;28;20033;-52
2022/04/07 11:48:21;;;;;;;8.75;1.15;;;8.50;99.90;;;;;;5029100;28;20045;-51
2022/04/07 11:50:46;;;;;;;9.88;1.23;;;8.30;99.90;;;;;;5028884;28;20337;-52
2022/04/07 11:53:12;;;;;;;11.60;1.52;;;8.60;99.90;;;;;;5029056;28;20056;-50
2022/04/07 11:55:38;;;;;;;9.98;1.23;;;8.80;99.90;;;;;;5028741;28;20049;-48
2022/04/07 11:58:04;;;;;;;11.82;1.85;;;8.70;99.90;;;;;;5029130;28;20396;-52
2022/04/07 12:00:31;;;;;;;12.25;1.85;;;9.10;99.90;;;;;;5028411;28;20041;-50
2022/04/07 12:03:02;;;;;;;12.68;2.17;;;9.50;99.90;;;;;;5028875;28;20053;-51
2022/04/07 12:05:30;;;;;;;14.40;2.05;;;9.50;99.90;;;;;;5028630;28;20107;-52
2022/04/07 12:08:16;;;;;;;12.68;1.02;;;9.50;99.90;;;;;;5028635;28;20049;-49
2022/04/07 12:10:44;;;;;;;9.30;1.60;;;9.20;99.90;;;;;;5027977;28;20124;-50
2022/04/07 12:13:11;;;;;;;14.05;1.33;;;8.80;99.90;;;;;;5028542;28;20041;-49
2022/04/07 12:15:38;;;;;;;11.13;1.63;;;8.80;99.90;;;;;;5028519;28;20121;-49
2022/04/07 12:18:08;;;;;;;13.85;2.00;;;9.50;99.90;;;;;;5028365;28;20041;-49
2022/04/07 12:20:38;;;;;;;11.98;1.83;;;9.50;99.90;;;;;;5028364;28;20160;-51
2022/04/07 12:23:12;;;;;;;11.07;1.13;;;9.80;99.90;;;;;;5028744;28;20077;-48
2022/04/07 12:25:40;;;;;;;13.20;1.77;;;10.00;99.90;;;;;;5028053;28;20660;-50
2022/04/07 12:28:10;;;;;;;9.65;1.08;;;10.00;99.90;;;;;;5028487;28;20045;-49
2022/04/07 12:30:50;;;;;;;10.00;1.70;;;10.00;99.90;;;;;;5028209;28;20500;-48
2022/04/07 12:33:38;;;;;;;8.18;1.40;;;9.80;99.90;;;;;;5028270;28;20052;-50
2022/04/07 12:36:09;;;;;;;7.85;1.00;;;9.80;99.90;;;;;;5028255;28;20041;-51
2022/04/07 12:38:35;;;;;;;11.55;1.05;;;9.90;99.90;;;;;;5028039;28;20391;-49
2022/04/07 12:41:15;;;;;;;11.73;0.80;;;10.10;99.90;;;;;;5028754;28;20057;-52
2022/04/07 12:43:50;;;;;;;12.43;1.05;;;9.90;99.90;;;;;;5028335;28;20050;-49
2022/04/07 12:46:20;;;;;;;7.78;0.90;;;9.80;99.90;;;;;;5028258;28;20049;-50
2022/04/07 12:49:06;;;;;;;9.13;1.05;;;9.80;99.90;;;;;;5027723;28;20068;-52
2022/04/07 12:51:36;;;;;;;7.40;0.90;;;10.00;99.90;;;;;;5028249;28;20083;-50
2022/04/07 12:54:15;;;;;;;6.68;1.10;;;10.00;99.90;;;;;;5028492;28;20050;-50
2022/04/07 12:56:43;;;;;;;10.80;0.93;;;10.00;99.90;;;;;;5027918;28;20424;-52
2022/04/07 12:59:11;;;;;;;4.97;0.60;;;10.10;99.90;;;;;;5028288;28;20073;-50